createdAt,value
2018-08-12T00:01:30.554Z,4.22
2018-08-12T00:03:57.751Z,4.35
2018-08-12T00:06:25.122Z,3.98
2018-08-12T00:08:52.351Z,4.15
2018-08-12T00:11:19.581Z,4.20
2018-08-12T00:13:46.819Z,3.75
2018-08-12T00:16:14.011Z,4.28
2018-08-12T00:18:41.227Z,4.42
2018-08-12T00:21:08.530Z,3.70
2018-08-12T00:23:35.736Z,4.22
2018-08-12T00:26:02.991Z,3.60
2018-08-12T00:28:30.215Z,4.03
2018-08-12T00:30:57.447Z,3.47
2018-08-12T00:33:24.683Z,4.10
2018-08-12T00:35:51.894Z,3.92
2018-08-12T00:38:19.143Z,4.10
2018-08-12T00:40:46.380Z,3.90
2018-08-12T00:43:13.722Z,3.70
2018-08-12T00:45:40.934Z,3.95
2018-08-12T00:48:08.137Z,4.58
2018-08-12T00:50:35.370Z,4.30
2018-08-12T00:53:02.631Z,4.20
2018-08-12T00:55:29.855Z,5.05
2018-08-12T00:57:57.108Z,5.00
2018-08-12T01:00:24.414Z,5.03
2018-08-12T01:02:51.635Z,5.33
2018-08-12T01:05:19.475Z,5.67
2018-08-12T01:07:47.573Z,5.75
2018-08-12T01:10:15.130Z,4.85
2018-08-12T01:12:42.367Z,5.40
2018-08-12T01:15:11.173Z,5.50
2018-08-12T01:17:38.534Z,5.17
2018-08-12T01:20:06.219Z,5.20
2018-08-12T01:22:33.439Z,4.80
2018-08-12T01:25:00.693Z,5.45
2018-08-12T01:27:27.956Z,5.08
2018-08-12T01:29:55.191Z,5.05
2018-08-12T01:32:22.485Z,5.85
2018-08-12T01:34:49.691Z,5.30
2018-08-12T01:37:16.960Z,5.95
2018-08-12T01:39:44.223Z,5.67
2018-08-12T01:42:11.437Z,5.70
2018-08-12T01:44:38.631Z,5.20
2018-08-12T01:47:05.959Z,5.58
2018-08-12T01:49:33.195Z,5.95
2018-08-12T01:52:00.470Z,5.37
2018-08-12T01:54:27.923Z,5.90
2018-08-12T01:56:55.294Z,6.20
2018-08-12T01:59:22.527Z,5.58
2018-08-12T02:01:49.751Z,5.30
2018-08-12T02:04:16.972Z,5.22
2018-08-12T02:06:44.214Z,5.22
2018-08-12T02:09:11.960Z,5.97
2018-08-12T02:11:39.369Z,5.37
2018-08-12T02:14:06.984Z,5.10
2018-08-12T02:16:34.322Z,5.90
2018-08-12T02:19:01.703Z,5.65
2018-08-12T02:21:28.902Z,5.20
2018-08-12T02:23:56.122Z,5.10
2018-08-12T02:26:23.348Z,4.60
2018-08-12T02:28:50.544Z,4.35
2018-08-12T02:31:17.775Z,4.90
2018-08-12T02:33:44.994Z,4.62
2018-08-12T02:36:12.312Z,4.30
2018-08-12T02:38:39.618Z,4.08
2018-08-12T02:41:06.858Z,5.05
2018-08-12T02:43:34.154Z,4.85
2018-08-12T02:46:01.375Z,4.90
2018-08-12T02:48:28.596Z,5.00
2018-08-12T02:50:55.816Z,5.00
2018-08-12T02:53:23.054Z,4.67
2018-08-12T02:55:50.908Z,5.12
2018-08-12T02:58:18.348Z,4.80
2018-08-12T03:00:45.616Z,5.05
2018-08-12T03:03:12.870Z,4.90
2018-08-12T03:05:40.318Z,4.42
2018-08-12T03:08:07.583Z,4.53
2018-08-12T03:10:34.809Z,4.78
2018-08-12T03:13:02.037Z,4.15
2018-08-12T03:15:29.286Z,4.58
2018-08-12T03:17:56.522Z,4.78
2018-08-12T03:20:23.767Z,4.30
2018-08-12T03:22:51.051Z,4.90
2018-08-12T03:25:18.275Z,4.60
2018-08-12T03:27:45.499Z,4.10
2018-08-12T03:30:12.788Z,4.70
2018-08-12T03:32:40.203Z,4.42
2018-08-12T03:35:07.486Z,4.78
2018-08-12T03:37:34.725Z,4.72
2018-08-12T03:40:01.968Z,5.37
2018-08-12T03:42:29.198Z,4.37
2018-08-12T03:44:56.431Z,4.60
2018-08-12T03:47:23.643Z,4.40
2018-08-12T03:49:50.854Z,4.50
2018-08-12T03:52:18.099Z,4.90
2018-08-12T03:54:45.302Z,4.83
2018-08-12T03:57:12.505Z,5.05
2018-08-12T03:59:39.723Z,4.90
2018-08-12T04:02:07.126Z,4.45
2018-08-12T04:04:34.343Z,4.40
2018-08-12T04:07:01.547Z,4.25
2018-08-12T04:09:28.930Z,4.33
2018-08-12T04:11:56.159Z,4.37
2018-08-12T04:14:23.406Z,4.42
2018-08-12T04:16:56.175Z,4.12
2018-08-12T04:19:23.446Z,4.70
2018-08-12T04:21:50.655Z,4.72
2018-08-12T04:24:17.865Z,4.97
2018-08-12T04:26:45.091Z,4.65
2018-08-12T04:29:12.283Z,5.30
2018-08-12T04:31:39.503Z,4.40
2018-08-12T04:34:06.864Z,4.65
2018-08-12T04:36:34.135Z,4.15
2018-08-12T04:39:01.374Z,4.80
2018-08-12T04:41:28.590Z,4.70
2018-08-12T04:43:55.802Z,4.90
2018-08-12T04:46:22.994Z,4.97
2018-08-12T04:48:50.267Z,4.20
2018-08-12T04:51:17.482Z,4.80
2018-08-12T04:53:44.710Z,4.22
2018-08-12T04:56:12.040Z,4.60
2018-08-12T04:58:39.363Z,4.75
2018-08-12T05:01:06.798Z,3.70
2018-08-12T05:03:33.995Z,4.05
2018-08-12T05:06:01.270Z,4.92
2018-08-12T05:08:30.171Z,4.42
2018-08-12T05:10:57.514Z,4.40
2018-08-12T05:13:24.760Z,5.08
2018-08-12T05:15:51.951Z,4.50
2018-08-12T05:18:19.187Z,4.35
2018-08-12T05:20:46.415Z,3.60
2018-08-12T05:23:13.768Z,4.25
2018-08-12T05:25:41.019Z,4.22
2018-08-12T05:28:08.296Z,4.12
2018-08-12T05:30:35.509Z,3.80
2018-08-12T05:33:02.766Z,3.98
2018-08-12T05:35:29.994Z,3.85
2018-08-12T05:37:57.234Z,3.92
2018-08-12T05:40:24.538Z,4.83
2018-08-12T05:42:51.781Z,4.40
2018-08-12T05:45:19.063Z,4.13
2018-08-12T05:47:46.427Z,4.07
2018-08-12T05:50:13.659Z,4.30
2018-08-12T05:52:40.847Z,3.97
2018-08-12T05:55:08.681Z,3.73
2018-08-12T05:57:35.960Z,3.67
2018-08-12T06:00:03.238Z,4.10
2018-08-12T06:02:30.447Z,4.00
2018-08-12T06:04:57.671Z,4.27
2018-08-12T06:07:24.973Z,3.70
2018-08-12T06:09:52.406Z,3.93
2018-08-12T06:12:19.650Z,4.00
2018-08-12T06:14:46.886Z,4.07
2018-08-12T06:17:14.123Z,3.67
2018-08-12T06:19:41.343Z,4.10
2018-08-12T06:22:08.573Z,4.17
2018-08-12T06:24:35.832Z,3.90
2018-08-12T06:27:03.051Z,3.90
2018-08-12T06:29:30.269Z,3.90
2018-08-12T06:31:57.486Z,4.40
2018-08-12T06:34:24.745Z,3.73
2018-08-12T06:36:51.987Z,4.40
2018-08-12T06:39:19.239Z,4.00
2018-08-12T06:41:46.445Z,4.10
2018-08-12T06:44:13.679Z,4.40
2018-08-12T06:46:40.894Z,4.00
2018-08-12T06:49:08.139Z,3.80
2018-08-12T06:51:35.514Z,4.47
2018-08-12T06:54:02.754Z,4.20
2018-08-12T06:56:29.987Z,4.43
2018-08-12T06:58:57.274Z,4.20
2018-08-12T07:01:24.518Z,4.73
2018-08-12T07:03:51.772Z,3.93
2018-08-12T07:06:19.014Z,4.00
2018-08-12T07:08:46.263Z,4.27
2018-08-12T07:11:13.522Z,4.43
2018-08-12T07:13:40.807Z,4.00
2018-08-12T07:16:08.055Z,4.07
2018-08-12T07:18:35.287Z,4.80
2018-08-12T07:21:02.654Z,4.73
2018-08-12T07:23:29.876Z,4.30
2018-08-12T07:25:57.122Z,4.37
2018-08-12T07:28:24.363Z,5.00
2018-08-12T07:30:51.640Z,4.47
2018-08-12T07:33:18.854Z,4.57
2018-08-12T07:35:46.092Z,4.93
2018-08-12T07:38:13.336Z,4.97
2018-08-12T07:40:40.598Z,5.10
2018-08-12T07:43:07.983Z,5.60
2018-08-12T07:45:36.252Z,4.80
2018-08-12T07:48:03.471Z,4.43
2018-08-12T07:50:30.694Z,6.07
2018-08-12T07:52:57.946Z,5.73
2018-08-12T07:55:26.459Z,5.53
2018-08-12T07:57:53.720Z,5.00
2018-08-12T08:00:21.130Z,5.20
2018-08-12T08:02:48.742Z,5.03
2018-08-12T08:05:16.160Z,5.60
2018-08-12T08:07:43.506Z,5.10
2018-08-12T08:10:11.999Z,4.97
2018-08-12T08:12:39.634Z,5.07
2018-08-12T08:15:08.233Z,4.83
2018-08-12T08:17:35.622Z,5.43
2018-08-12T08:20:03.058Z,6.07
2018-08-12T08:22:30.314Z,4.87
2018-08-12T08:24:57.538Z,4.77
2018-08-12T08:27:24.792Z,4.73
2018-08-12T08:29:51.987Z,5.37
2018-08-12T08:32:19.242Z,5.17
2018-08-12T08:34:46.591Z,4.80
2018-08-12T08:37:13.814Z,4.60
2018-08-12T08:39:41.033Z,4.27
2018-08-12T08:42:08.251Z,4.80
2018-08-12T08:44:35.506Z,5.80
2018-08-12T08:47:03.793Z,5.13
2018-08-12T08:49:31.847Z,5.00
2018-08-12T08:52:00.215Z,5.03
2018-08-12T08:54:27.978Z,5.10
2018-08-12T08:56:56.258Z,4.93
2018-08-12T08:59:24.766Z,5.50
2018-08-12T09:01:52.562Z,5.07
2018-08-12T09:04:19.803Z,5.87
2018-08-12T09:06:47.058Z,4.57
2018-08-12T09:09:15.851Z,4.77
2018-08-12T09:11:43.187Z,5.50
2018-08-12T09:14:11.023Z,5.37
2018-08-12T09:16:39.000Z,5.37
2018-08-12T09:19:06.291Z,5.30
2018-08-12T09:21:34.529Z,5.60
2018-08-12T09:24:02.107Z,6.70
2018-08-12T09:26:29.355Z,6.20
2018-08-12T09:28:56.599Z,5.37
2018-08-12T09:31:23.831Z,6.37
2018-08-12T09:33:51.063Z,6.40
2018-08-12T09:36:18.303Z,5.20
2018-08-12T09:38:45.547Z,6.07
2018-08-12T09:41:12.766Z,6.20
2018-08-12T09:43:39.991Z,5.60
2018-08-12T09:46:07.215Z,6.03
2018-08-12T09:48:34.436Z,6.10
2018-08-12T09:51:01.671Z,5.30
2018-08-12T09:53:28.951Z,5.13
2018-08-12T09:55:56.542Z,5.27
2018-08-12T09:58:23.834Z,5.00
2018-08-12T10:00:51.098Z,4.90
2018-08-12T10:03:18.531Z,4.33
2018-08-12T10:05:45.758Z,5.37
2018-08-12T10:08:12.990Z,5.57
2018-08-12T10:10:40.219Z,4.50
2018-08-12T10:13:07.482Z,4.80
2018-08-12T10:15:34.764Z,4.33
2018-08-12T10:18:03.415Z,4.13
2018-08-12T10:20:30.721Z,4.17
2018-08-12T10:22:57.949Z,4.10
2018-08-12T10:25:25.179Z,4.73
2018-08-12T10:27:52.441Z,4.70
2018-08-12T10:30:19.745Z,3.73
2018-08-12T10:32:47.015Z,4.00
2018-08-12T10:35:14.961Z,3.90
2018-08-12T10:37:42.754Z,4.27
2018-08-12T10:40:11.256Z,4.00
2018-08-12T10:42:38.724Z,4.17
2018-08-12T10:45:06.615Z,3.70
2018-08-12T10:47:33.843Z,3.63
2018-08-12T10:50:01.076Z,3.70
2018-08-12T10:52:28.342Z,3.80
2018-08-12T10:54:55.578Z,4.03
2018-08-12T10:57:22.994Z,3.53
2018-08-12T10:59:50.212Z,3.73
2018-08-12T11:02:17.498Z,3.90
2018-08-12T11:04:44.745Z,3.80
2018-08-12T11:07:12.034Z,4.23
2018-08-12T11:09:39.231Z,3.80
2018-08-12T11:12:06.534Z,3.60
2018-08-12T11:14:33.748Z,3.90
2018-08-12T11:17:00.961Z,3.63
2018-08-12T11:19:28.209Z,3.37
2018-08-12T11:21:55.447Z,3.73
2018-08-12T11:24:22.727Z,3.27
2018-08-12T11:26:49.966Z,3.40
2018-08-12T11:29:17.311Z,3.20
2018-08-12T11:31:44.669Z,3.30
2018-08-12T11:34:11.950Z,3.20
2018-08-12T11:36:39.174Z,2.87
2018-08-12T11:39:07.436Z,3.30
2018-08-12T11:41:34.643Z,3.13
2018-08-12T11:44:01.864Z,3.43
2018-08-12T11:46:29.078Z,3.40
2018-08-12T11:48:56.291Z,3.40
2018-08-12T11:51:23.648Z,2.90
2018-08-12T11:53:50.894Z,2.93
2018-08-12T11:56:18.228Z,3.20
2018-08-12T11:58:45.490Z,3.00
2018-08-12T12:01:12.763Z,2.97
2018-08-12T12:03:41.109Z,3.10
2018-08-12T12:06:08.414Z,3.10
2018-08-12T12:08:35.639Z,3.03
2018-08-12T12:11:04.235Z,3.23
2018-08-12T12:13:31.530Z,1.90
2018-08-12T12:15:58.827Z,2.50
2018-08-12T12:18:26.080Z,2.60
2018-08-12T12:20:53.503Z,2.50
2018-08-12T12:23:20.714Z,2.47
2018-08-12T12:25:47.952Z,2.87
2018-08-12T12:28:15.209Z,2.57
2018-08-12T12:30:42.587Z,2.80
2018-08-12T12:33:09.828Z,2.60
2018-08-12T12:35:37.116Z,3.00
2018-08-12T12:38:04.355Z,2.50
2018-08-12T12:40:31.612Z,2.77
2018-08-12T12:42:58.899Z,2.70
2018-08-12T12:45:26.110Z,2.73
2018-08-12T12:47:53.326Z,2.33
2018-08-12T12:50:22.069Z,2.80
2018-08-12T12:52:50.361Z,2.87
2018-08-12T12:55:18.126Z,2.80
2018-08-12T12:57:45.351Z,2.60
2018-08-12T13:00:14.486Z,2.57
2018-08-12T13:02:42.019Z,2.43
2018-08-12T13:05:11.943Z,2.70
2018-08-12T13:07:39.244Z,2.70
2018-08-12T13:10:07.182Z,2.50
2018-08-12T13:12:34.530Z,3.00
2018-08-12T13:15:01.728Z,2.83
2018-08-12T13:17:29.032Z,3.00
2018-08-12T13:19:56.875Z,2.67
2018-08-12T13:22:24.090Z,2.60
2018-08-12T13:24:51.840Z,2.90
2018-08-12T13:27:19.075Z,2.83
2018-08-12T13:29:46.267Z,3.13
2018-08-12T13:32:13.725Z,2.80
2018-08-12T13:34:40.939Z,2.70
2018-08-12T13:37:08.207Z,2.60
2018-08-12T13:39:35.430Z,2.70
2018-08-12T13:42:03.135Z,2.73
2018-08-12T13:44:30.368Z,3.00
2018-08-12T13:46:57.598Z,2.70
2018-08-12T13:49:24.863Z,3.07
2018-08-12T13:51:52.115Z,2.83
2018-08-12T13:54:19.350Z,2.80
2018-08-12T13:56:46.803Z,2.80
2018-08-12T13:59:14.075Z,2.80
2018-08-12T14:01:41.463Z,2.57
2018-08-12T14:04:08.735Z,2.73
2018-08-12T14:06:35.973Z,2.70
2018-08-12T14:09:04.212Z,2.70
2018-08-12T14:11:31.586Z,2.70
2018-08-12T14:13:58.843Z,3.00
2018-08-12T14:16:26.714Z,2.67
2018-08-12T14:18:53.994Z,3.00
2018-08-12T14:21:21.613Z,3.00
2018-08-12T14:23:48.870Z,2.93
2018-08-12T14:26:16.070Z,2.80
2018-08-12T14:28:43.846Z,2.67
2018-08-12T14:31:11.068Z,3.40
2018-08-12T14:33:38.273Z,2.90
2018-08-12T14:36:06.167Z,2.87
2018-08-12T14:38:33.475Z,3.60
2018-08-12T14:41:00.694Z,2.50
2018-08-12T14:43:27.978Z,2.70
2018-08-12T14:45:55.178Z,2.40
2018-08-12T14:48:22.446Z,2.60
2018-08-12T14:50:49.692Z,2.40
2018-08-12T14:53:16.988Z,2.50
2018-08-12T14:55:44.207Z,2.50
2018-08-12T14:58:11.556Z,3.00
2018-08-12T15:00:38.814Z,2.60
2018-08-12T15:03:06.063Z,2.77
2018-08-12T15:05:33.274Z,2.50
2018-08-12T15:08:00.610Z,2.80
2018-08-12T15:10:27.985Z,2.70
2018-08-12T15:12:55.268Z,2.57
2018-08-12T15:15:22.487Z,2.50
2018-08-12T15:17:49.837Z,2.40
2018-08-12T15:20:17.419Z,2.43
2018-08-12T15:22:44.762Z,2.90
2018-08-12T15:25:12.859Z,2.57
2018-08-12T15:27:40.127Z,2.40
2018-08-12T15:30:08.274Z,2.60
2018-08-12T15:32:35.535Z,2.77
2018-08-12T15:35:02.846Z,2.47
2018-08-12T15:37:30.068Z,2.40
2018-08-12T15:39:57.331Z,2.67
2018-08-12T15:42:24.652Z,2.60
2018-08-12T15:44:51.874Z,2.90
2018-08-12T15:47:19.180Z,2.70
2018-08-12T15:49:46.498Z,2.70
2018-08-12T15:52:13.701Z,2.60
2018-08-12T15:54:41.022Z,2.40
2018-08-12T15:57:08.243Z,2.60
2018-08-12T15:59:35.449Z,2.60
2018-08-12T16:02:02.722Z,2.50
2018-08-12T16:04:30.013Z,2.90
2018-08-12T16:06:57.356Z,3.30
2018-08-12T16:09:24.594Z,3.23
2018-08-12T16:11:51.807Z,5.20
2018-08-12T16:14:19.185Z,5.50
2018-08-12T16:16:46.456Z,5.03
2018-08-12T16:19:13.666Z,2.70
2018-08-12T16:21:40.869Z,2.63
2018-08-12T16:24:08.108Z,2.90
2018-08-12T16:26:35.374Z,2.77
2018-08-12T16:29:02.791Z,2.93
2018-08-12T16:31:30.004Z,2.90
2018-08-12T16:33:57.228Z,2.73
2018-08-12T16:36:24.459Z,2.73
2018-08-12T16:38:51.671Z,2.63
2018-08-12T16:41:18.950Z,3.27
2018-08-12T16:43:46.251Z,2.80
2018-08-12T16:46:13.578Z,3.40
2018-08-12T16:48:40.835Z,2.63
2018-08-12T16:51:08.107Z,3.00
2018-08-12T16:53:35.374Z,3.40
2018-08-12T16:56:02.636Z,2.80
2018-08-12T16:58:29.966Z,3.23
2018-08-12T17:00:57.187Z,2.90
2018-08-12T17:03:24.434Z,3.10
2018-08-12T17:05:51.684Z,3.07
2018-08-12T17:08:18.946Z,2.83
2018-08-12T17:10:46.214Z,2.70
2018-08-12T17:13:13.461Z,2.77
2018-08-12T17:15:40.711Z,3.03
2018-08-12T17:18:08.093Z,2.90
2018-08-12T17:20:35.295Z,3.10
2018-08-12T17:23:02.557Z,2.97
2018-08-12T17:25:29.895Z,3.20
2018-08-12T17:27:57.155Z,3.70
2018-08-12T17:30:24.370Z,3.40
2018-08-12T17:32:51.591Z,2.83
2018-08-12T17:35:18.855Z,2.67
2018-08-12T17:37:46.954Z,2.77
2018-08-12T17:40:15.156Z,3.23
2018-08-12T17:42:42.495Z,3.50
2018-08-12T17:45:10.486Z,3.50
2018-08-12T17:47:38.044Z,3.77
2018-08-12T17:50:05.420Z,3.43
2018-08-12T17:52:32.860Z,3.50
2018-08-12T17:55:00.112Z,3.17
2018-08-12T17:57:27.366Z,3.60
2018-08-12T17:59:54.648Z,3.70
2018-08-12T18:02:22.323Z,3.83
2018-08-12T18:04:49.556Z,3.50
2018-08-12T18:07:16.794Z,3.47
2018-08-12T18:09:44.057Z,4.37
2018-08-12T18:12:11.279Z,4.17
2018-08-12T18:14:38.535Z,3.43
2018-08-12T18:17:05.818Z,3.27
2018-08-12T18:19:33.142Z,3.40
2018-08-12T18:22:00.356Z,4.10
2018-08-12T18:24:27.595Z,4.13
2018-08-12T18:26:55.146Z,3.50
2018-08-12T18:29:22.444Z,3.90
2018-08-12T18:31:49.866Z,4.53
2018-08-12T18:34:17.219Z,4.63
2018-08-12T18:36:44.470Z,4.30
2018-08-12T18:39:12.803Z,4.80
2018-08-12T18:41:40.200Z,3.90
2018-08-12T18:44:07.665Z,4.50
2018-08-12T18:46:35.062Z,4.23
2018-08-12T18:49:02.611Z,3.63
2018-08-12T18:51:29.815Z,3.90
2018-08-12T18:53:57.063Z,4.23
2018-08-12T18:56:24.291Z,3.83
2018-08-12T18:58:51.749Z,4.00
2018-08-12T19:01:18.962Z,4.03
2018-08-12T19:03:46.375Z,4.20
2018-08-12T19:06:13.614Z,4.33
2018-08-12T19:08:40.843Z,4.37
2018-08-12T19:11:08.291Z,4.90
2018-08-12T19:13:35.502Z,4.17
2018-08-12T19:16:02.846Z,4.17
2018-08-12T19:18:30.281Z,4.03
2018-08-12T19:21:03.656Z,3.80
2018-08-12T19:23:30.861Z,3.87
2018-08-12T19:25:58.122Z,3.83
2018-08-12T19:28:25.556Z,3.70
2018-08-12T19:30:52.874Z,3.53
2018-08-12T19:33:20.074Z,4.30
2018-08-12T19:35:47.271Z,3.70
2018-08-12T19:38:14.531Z,3.90
2018-08-12T19:40:41.752Z,3.93
2018-08-12T19:43:09.950Z,3.60
2018-08-12T19:45:37.358Z,3.73
2018-08-12T19:48:04.859Z,3.83
2018-08-12T19:50:32.065Z,3.90
2018-08-12T19:52:59.405Z,3.80
2018-08-12T19:58:10.864Z,4.20
2018-08-12T20:00:38.138Z,4.00
2018-08-12T20:03:06.182Z,4.13
2018-08-12T20:05:33.482Z,4.40
2018-08-12T20:08:01.576Z,4.40
2018-08-12T20:10:28.862Z,4.83
2018-08-12T20:12:59.346Z,4.80
2018-08-12T20:15:26.738Z,4.50
2018-08-12T20:17:54.156Z,5.20
2018-08-12T20:20:21.408Z,4.80
2018-08-12T20:22:48.721Z,5.70
2018-08-12T20:25:15.995Z,5.20
2018-08-12T20:27:43.520Z,5.70
2018-08-12T20:30:11.678Z,5.57
2018-08-12T20:32:39.034Z,5.00
2018-08-12T20:35:06.620Z,5.37
2018-08-12T20:37:33.925Z,4.50
2018-08-12T20:40:01.643Z,5.33
2018-08-12T20:42:28.918Z,5.80
2018-08-12T20:44:56.310Z,5.10
2018-08-12T20:47:23.773Z,4.87
2018-08-12T20:49:51.117Z,5.20
2018-08-12T20:52:18.521Z,4.70
2018-08-12T20:54:45.858Z,4.83
2018-08-12T20:57:13.190Z,4.53
2018-08-12T20:59:40.505Z,4.63
2018-08-12T21:02:07.767Z,4.97
2018-08-12T21:04:35.041Z,4.20
2018-08-12T21:07:02.486Z,4.67
2018-08-12T21:09:29.775Z,4.40
2018-08-12T21:11:57.095Z,4.17
2018-08-12T21:14:24.333Z,4.77
2018-08-12T21:16:51.638Z,4.47
2018-08-12T21:19:18.915Z,4.90
2018-08-12T21:21:46.193Z,5.10
2018-08-12T21:24:13.502Z,5.10
2018-08-12T21:26:40.867Z,5.07
2018-08-12T21:29:08.268Z,4.60
2018-08-12T21:31:35.582Z,5.30
2018-08-12T21:34:02.913Z,4.70
2018-08-12T21:36:30.281Z,4.93
2018-08-12T21:38:57.603Z,5.33
2018-08-12T21:41:24.960Z,5.00
2018-08-12T21:43:52.279Z,5.80
2018-08-12T21:46:19.717Z,6.00
2018-08-12T21:48:47.110Z,5.50
2018-08-12T21:51:14.570Z,5.90
2018-08-12T21:53:41.970Z,6.37
2018-08-12T21:56:09.417Z,6.10
2018-08-12T21:58:36.710Z,5.60
2018-08-12T22:01:04.126Z,6.23
2018-08-12T22:03:31.447Z,6.13
2018-08-12T22:05:58.865Z,7.60
2018-08-12T22:08:26.170Z,8.70
2018-08-12T22:10:53.459Z,9.43
2018-08-12T22:13:20.756Z,8.70
2018-08-12T22:15:48.033Z,7.57
2018-08-12T22:18:15.341Z,6.63
2018-08-12T22:20:42.661Z,7.67
2018-08-12T22:23:09.953Z,7.23
2018-08-12T22:25:37.393Z,7.03
2018-08-12T22:28:05.145Z,7.53
2018-08-12T22:30:32.441Z,6.87
2018-08-12T22:32:59.749Z,8.63
2018-08-12T22:35:27.265Z,10.03
2018-08-12T22:37:54.747Z,6.30
2018-08-12T22:40:22.097Z,7.93
2018-08-12T22:42:49.378Z,7.60
2018-08-12T22:45:16.763Z,7.17
2018-08-12T22:47:44.045Z,6.83
2018-08-12T22:50:11.348Z,7.03
2018-08-12T22:52:38.939Z,7.57
2018-08-12T22:55:07.002Z,6.30
2018-08-12T22:57:34.546Z,7.47
2018-08-12T23:00:01.841Z,8.43
2018-08-12T23:02:29.283Z,7.97
2018-08-12T23:04:56.612Z,7.40
2018-08-12T23:07:24.170Z,8.03
2018-08-12T23:09:51.473Z,7.93
2018-08-12T23:12:18.777Z,9.90
2018-08-12T23:14:46.057Z,11.60
2018-08-12T23:17:13.447Z,9.97
2018-08-12T23:19:40.739Z,9.27
2018-08-12T23:22:08.604Z,9.60
2018-08-12T23:24:36.379Z,9.57
2018-08-12T23:27:03.904Z,8.23
2018-08-12T23:29:31.580Z,7.43
2018-08-12T23:31:59.284Z,7.70
2018-08-12T23:34:26.830Z,7.00
2018-08-12T23:36:54.402Z,7.10
2018-08-12T23:39:21.971Z,6.20
2018-08-12T23:41:49.415Z,6.83
2018-08-12T23:44:16.967Z,6.47
2018-08-12T23:46:44.234Z,5.57
2018-08-12T23:49:11.598Z,6.00
2018-08-12T23:51:38.893Z,5.77
2018-08-12T23:54:07.470Z,5.83
2018-08-12T23:56:34.756Z,5.83
2018-08-12T23:59:02.238Z,5.33
